createdAt,value
2023-11-17T00:00:59.706Z,0.00
2023-11-17T00:01:59.724Z,0.00
2023-11-17T00:02:59.863Z,0.00
2023-11-17T00:03:59.798Z,0.00
2023-11-17T00:04:59.689Z,0.00
2023-11-17T00:05:59.620Z,0.00
2023-11-17T00:06:59.657Z,0.00
2023-11-17T00:07:59.598Z,0.00
2023-11-17T00:08:59.589Z,0.00
2023-11-17T00:09:59.572Z,0.00
2023-11-17T00:10:59.561Z,0.00
2023-11-17T00:11:59.542Z,0.00
2023-11-17T00:12:59.565Z,0.00
2023-11-17T00:13:59.526Z,0.00
2023-11-17T00:14:59.507Z,0.00
2023-11-17T00:15:59.561Z,0.00
2023-11-17T00:16:59.560Z,0.00
2023-11-17T00:17:59.507Z,0.00
2023-11-17T00:18:59.549Z,0.00
2023-11-17T00:19:59.448Z,0.00
2023-11-17T00:20:59.425Z,0.00
2023-11-17T00:21:59.436Z,0.00
2023-11-17T00:22:59.393Z,0.00
2023-11-17T00:23:59.398Z,0.00
2023-11-17T00:24:59.416Z,0.00
2023-11-17T00:25:59.362Z,0.00
2023-11-17T00:26:59.348Z,0.00
2023-11-17T00:27:59.388Z,0.00
2023-11-17T00:28:59.317Z,0.00
2023-11-17T00:29:59.308Z,0.00
2023-11-17T00:30:59.308Z,0.00
2023-11-17T00:31:59.277Z,0.00
2023-11-17T00:32:59.298Z,0.00
2023-11-17T00:33:59.427Z,0.00
2023-11-17T00:34:59.368Z,0.00
2023-11-17T00:35:59.219Z,0.00
2023-11-17T00:36:59.251Z,0.00
2023-11-17T00:37:59.194Z,0.00
2023-11-17T00:38:59.185Z,0.00
2023-11-17T00:39:59.211Z,0.00
2023-11-17T00:40:59.163Z,0.00
2023-11-17T00:41:59.144Z,0.00
2023-11-17T00:42:59.176Z,0.00
2023-11-17T00:43:59.189Z,0.00
2023-11-17T00:44:59.155Z,0.00
2023-11-17T00:45:59.181Z,0.00
2023-11-17T00:46:59.385Z,0.00
2023-11-17T00:47:59.132Z,0.00
2023-11-17T00:48:59.100Z,0.00
2023-11-17T00:49:59.049Z,0.00
2023-11-17T00:50:59.029Z,0.00
2023-11-17T00:51:59.086Z,0.00
2023-11-17T00:52:59.003Z,0.00
2023-11-17T00:53:58.995Z,0.00
2023-11-17T00:54:59.014Z,0.00
2023-11-17T00:55:58.962Z,0.00
2023-11-17T00:56:58.952Z,0.00
2023-11-17T00:57:59.014Z,0.00
2023-11-17T00:58:58.939Z,0.00
2023-11-17T00:59:58.923Z,0.00
2023-11-17T01:00:59.014Z,0.00
2023-11-17T01:01:58.902Z,0.00
2023-11-17T01:02:58.975Z,0.00
2023-11-17T01:03:58.917Z,0.00
2023-11-17T01:04:58.846Z,0.00
2023-11-17T01:05:58.831Z,0.00
2023-11-17T01:06:58.833Z,0.00
2023-11-17T01:07:58.807Z,0.00
2023-11-17T01:08:58.822Z,0.00
2023-11-17T01:09:58.834Z,0.00
2023-11-17T01:10:58.768Z,0.00
2023-11-17T01:11:58.756Z,0.00
2023-11-17T01:12:58.783Z,0.00
2023-11-17T01:13:58.729Z,0.00
2023-11-17T01:14:58.718Z,0.00
2023-11-17T01:15:58.816Z,0.00
2023-11-17T01:16:58.712Z,0.00
2023-11-17T01:17:58.735Z,0.00
2023-11-17T01:18:58.684Z,0.00
2023-11-17T01:19:58.640Z,0.00
2023-11-17T01:20:58.641Z,0.00
2023-11-17T01:21:58.681Z,0.00
2023-11-17T01:22:58.610Z,0.00
2023-11-17T01:23:58.602Z,0.00
2023-11-17T01:24:58.596Z,0.00
2023-11-17T01:25:58.568Z,0.00
2023-11-17T01:26:58.576Z,0.00
2023-11-17T01:27:58.599Z,0.00
2023-11-17T01:28:58.545Z,0.00
2023-11-17T01:29:58.516Z,0.00
2023-11-17T01:30:58.572Z,0.00
2023-11-17T01:31:58.497Z,0.00
2023-11-17T01:32:58.576Z,0.00
2023-11-17T01:33:58.550Z,0.00
2023-11-17T01:34:58.482Z,0.00
2023-11-17T01:35:58.438Z,0.00
2023-11-17T01:36:58.479Z,0.00
2023-11-17T01:37:58.423Z,0.00
2023-11-17T01:38:58.403Z,0.00
2023-11-17T01:39:58.405Z,0.00
2023-11-17T01:40:58.376Z,0.00
2023-11-17T01:41:58.366Z,0.00
2023-11-17T01:42:58.395Z,0.00
2023-11-17T01:43:58.342Z,0.00
2023-11-17T01:44:58.320Z,0.00
2023-11-17T01:45:58.402Z,0.00
2023-11-17T01:46:58.358Z,0.00
2023-11-17T01:47:58.343Z,0.00
2023-11-17T01:48:58.319Z,0.00
2023-11-17T01:49:58.263Z,0.00
2023-11-17T01:50:58.243Z,0.00
2023-11-17T01:51:58.278Z,0.00
2023-11-17T01:52:58.219Z,0.00
2023-11-17T01:53:58.202Z,0.00
2023-11-17T01:54:58.232Z,0.00
2023-11-17T01:55:58.176Z,0.00
2023-11-17T01:56:58.181Z,0.00
2023-11-17T01:57:58.203Z,0.00
2023-11-17T01:58:58.142Z,0.00
2023-11-17T01:59:58.147Z,0.00
2023-11-17T02:00:58.136Z,0.00
2023-11-17T02:01:58.162Z,0.00
2023-11-17T02:02:58.195Z,0.00
2023-11-17T02:03:58.170Z,0.00
2023-11-17T02:04:58.078Z,0.00
2023-11-17T02:05:58.052Z,0.00
2023-11-17T02:06:58.066Z,0.00
2023-11-17T02:07:58.026Z,0.00
2023-11-17T02:08:58.044Z,0.00
2023-11-17T02:09:58.041Z,0.00
2023-11-17T02:10:58.016Z,0.00
2023-11-17T02:11:57.973Z,0.00
2023-11-17T02:12:57.997Z,0.00
2023-11-17T02:13:58.016Z,0.00
2023-11-17T02:14:57.963Z,0.00
2023-11-17T02:15:57.944Z,0.00
2023-11-17T02:16:57.975Z,0.00
2023-11-17T02:17:57.954Z,0.00
2023-11-17T02:18:57.954Z,0.00
2023-11-17T02:19:57.867Z,0.00
2023-11-17T02:20:57.855Z,0.00
2023-11-17T02:21:57.930Z,0.00
2023-11-17T02:22:57.839Z,0.00
2023-11-17T02:23:57.818Z,0.00
2023-11-17T02:24:57.875Z,0.00
2023-11-17T02:25:57.792Z,0.00
2023-11-17T02:26:57.782Z,0.00
2023-11-17T02:27:57.810Z,0.00
2023-11-17T02:28:57.778Z,0.00
2023-11-17T02:29:57.757Z,0.00
2023-11-17T02:30:58.061Z,0.00
2023-11-17T02:31:57.772Z,0.00
2023-11-17T02:32:57.719Z,0.00
2023-11-17T02:33:57.706Z,0.00
2023-11-17T02:34:57.696Z,0.00
2023-11-17T02:35:57.657Z,0.00
2023-11-17T02:36:57.666Z,0.00
2023-11-17T02:37:57.631Z,0.00
2023-11-17T02:38:57.723Z,0.00
2023-11-17T02:39:57.632Z,0.00
2023-11-17T02:40:57.686Z,0.00
2023-11-17T02:41:57.582Z,0.00
2023-11-17T02:42:57.583Z,0.00
2023-11-17T02:43:57.555Z,0.00
2023-11-17T02:44:57.556Z,0.00
2023-11-17T02:45:57.561Z,0.00
2023-11-17T02:46:57.578Z,0.00
2023-11-17T02:47:57.859Z,0.00
2023-11-17T02:48:57.534Z,0.00
2023-11-17T02:49:57.478Z,0.00
2023-11-17T02:50:57.466Z,0.00
2023-11-17T02:51:57.546Z,0.00
2023-11-17T02:52:57.529Z,0.00
2023-11-17T02:53:57.424Z,0.00
2023-11-17T02:54:57.479Z,0.00
2023-11-17T02:55:57.397Z,0.00
2023-11-17T02:56:57.393Z,0.00
2023-11-17T02:57:57.391Z,0.00
2023-11-17T02:58:57.379Z,0.00
2023-11-17T02:59:57.345Z,0.00
2023-11-17T03:00:57.361Z,0.00
2023-11-17T03:01:57.355Z,0.00
2023-11-17T03:02:57.381Z,0.00
2023-11-17T03:03:57.356Z,0.00
2023-11-17T03:04:57.298Z,0.00
2023-11-17T03:05:57.271Z,0.00
2023-11-17T03:06:57.263Z,0.00
2023-11-17T03:07:57.237Z,0.00
2023-11-17T03:08:57.231Z,0.00
2023-11-17T03:09:57.450Z,0.00
2023-11-17T03:10:57.204Z,0.00
2023-11-17T03:11:57.185Z,0.00
2023-11-17T03:12:57.223Z,0.00
2023-11-17T03:13:57.178Z,0.00
2023-11-17T03:14:57.165Z,0.00
2023-11-17T03:15:57.239Z,0.00
2023-11-17T03:16:57.203Z,0.00
2023-11-17T03:17:57.196Z,0.00
2023-11-17T03:18:57.176Z,0.00
2023-11-17T03:19:57.104Z,0.00
2023-11-17T03:20:57.098Z,0.00
2023-11-17T03:21:57.118Z,0.00
2023-11-17T03:22:57.069Z,0.00
2023-11-17T03:23:57.057Z,0.00
2023-11-17T03:24:57.113Z,0.00
2023-11-17T03:25:57.032Z,0.00
2023-11-17T03:26:57.020Z,0.00
2023-11-17T03:27:57.069Z,0.00
2023-11-17T03:28:57.003Z,0.00
2023-11-17T03:29:56.974Z,0.00
2023-11-17T03:30:57.085Z,0.00
2023-11-17T03:31:57.054Z,0.00
2023-11-17T03:32:57.029Z,0.00
2023-11-17T03:33:56.944Z,0.00
2023-11-17T03:34:56.915Z,0.00
2023-11-17T03:35:56.915Z,0.00
2023-11-17T03:36:56.931Z,0.00
2023-11-17T03:37:56.882Z,0.00
2023-11-17T03:38:56.860Z,0.00
2023-11-17T03:39:56.865Z,0.00
2023-11-17T03:40:56.850Z,0.00
2023-11-17T03:41:56.875Z,0.00
2023-11-17T03:42:56.895Z,0.00
2023-11-17T03:43:56.798Z,0.00
2023-11-17T03:44:56.784Z,0.00
2023-11-17T03:45:56.841Z,0.00
2023-11-17T03:46:56.961Z,0.00
2023-11-17T03:47:56.773Z,0.00
2023-11-17T03:48:56.764Z,0.00
2023-11-17T03:49:56.711Z,0.00
2023-11-17T04:03:32.383Z,0.00
2023-11-17T04:04:32.366Z,0.00
2023-11-17T04:05:32.312Z,0.00
2023-11-17T04:06:32.298Z,0.00
2023-11-17T04:07:32.335Z,0.00
2023-11-17T04:08:32.267Z,0.00
2023-11-17T04:09:32.269Z,0.00
2023-11-17T04:10:32.267Z,0.00
2023-11-17T04:11:32.240Z,0.00
2023-11-17T04:12:32.225Z,0.00
2023-11-17T04:13:32.380Z,0.00
2023-11-17T04:14:32.200Z,0.00
2023-11-17T04:15:32.209Z,0.00
2023-11-17T04:16:32.284Z,0.00
2023-11-17T04:17:32.346Z,0.00
2023-11-17T04:18:32.222Z,0.00
2023-11-17T04:19:32.234Z,0.00
2023-11-17T04:20:32.199Z,0.00
2023-11-17T04:21:32.185Z,0.00
2023-11-17T04:22:32.269Z,0.00
2023-11-17T04:23:32.077Z,0.00
2023-11-17T04:24:32.100Z,0.00
2023-11-17T04:25:32.086Z,0.00
2023-11-17T04:26:32.038Z,0.00
2023-11-17T04:27:32.042Z,0.00
2023-11-17T04:28:32.052Z,0.00
2023-11-17T04:29:31.999Z,0.00
2023-11-17T04:30:31.990Z,0.00
2023-11-17T04:31:31.997Z,0.00
2023-11-17T04:32:32.045Z,0.00
2023-11-17T04:33:32.007Z,0.00
2023-11-17T04:34:31.985Z,0.00
2023-11-17T04:35:31.925Z,0.00
2023-11-17T04:36:31.919Z,0.00
2023-11-17T04:37:31.989Z,0.00
2023-11-17T04:38:31.902Z,0.00
2023-11-17T04:39:31.864Z,0.00
2023-11-17T04:40:31.895Z,0.00
2023-11-17T04:41:31.836Z,0.00
2023-11-17T04:42:31.836Z,0.00
2023-11-17T04:43:31.819Z,0.00
2023-11-17T04:44:31.896Z,0.00
2023-11-17T04:45:31.808Z,0.00
2023-11-17T04:46:31.872Z,0.00
2023-11-17T04:47:31.782Z,0.00
2023-11-17T04:48:31.783Z,0.00
2023-11-17T04:49:31.805Z,0.00
2023-11-17T04:50:31.731Z,0.00
2023-11-17T04:51:31.729Z,0.00
2023-11-17T04:52:31.892Z,0.00
2023-11-17T04:53:31.694Z,0.00
2023-11-17T04:54:31.684Z,0.00
2023-11-17T04:55:31.721Z,0.00
2023-11-17T04:56:31.694Z,0.00
2023-11-17T04:57:31.637Z,0.00
2023-11-17T04:58:31.672Z,0.00
2023-11-17T04:59:31.609Z,0.00
2023-11-17T05:00:31.613Z,0.00
2023-11-17T05:01:31.685Z,0.00
2023-11-17T05:02:31.604Z,0.00
2023-11-17T05:03:31.662Z,0.00
2023-11-17T05:04:31.612Z,0.00
2023-11-17T05:05:31.550Z,0.00
2023-11-17T05:06:31.517Z,0.00
2023-11-17T05:07:31.567Z,0.00
2023-11-17T05:08:31.501Z,0.00
2023-11-17T05:09:31.505Z,0.00
2023-11-17T05:10:31.505Z,0.00
2023-11-17T05:11:31.445Z,0.00
2023-11-17T05:12:31.442Z,0.00
2023-11-17T05:13:31.486Z,0.00
2023-11-17T05:14:31.421Z,0.00
2023-11-17T05:15:33.560Z,0.00
2023-11-17T05:16:31.472Z,0.00
2023-11-17T05:17:31.422Z,0.00
2023-11-17T05:18:31.379Z,0.00
2023-11-17T05:19:31.412Z,0.00
2023-11-17T05:20:31.356Z,0.00
2023-11-17T05:21:31.340Z,0.00
2023-11-17T05:22:31.339Z,0.00
2023-11-17T05:23:31.306Z,0.00
2023-11-17T05:24:31.297Z,0.00
2023-11-17T05:25:31.348Z,0.00
2023-11-17T05:26:31.280Z,0.00
2023-11-17T05:27:31.235Z,0.00
2023-11-17T05:28:32.309Z,0.00
2023-11-17T05:29:31.248Z,0.00
2023-11-17T05:30:31.241Z,0.00
2023-11-17T05:31:31.235Z,0.00
2023-11-17T05:32:31.196Z,0.00
2023-11-17T05:33:31.169Z,0.00
2023-11-17T05:34:31.216Z,0.00
2023-11-17T05:35:31.142Z,0.00
2023-11-17T05:36:31.167Z,0.00
2023-11-17T05:37:31.154Z,0.00
2023-11-17T05:38:31.114Z,0.00
2023-11-17T05:39:31.092Z,0.00
2023-11-17T05:40:31.105Z,0.00
2023-11-17T05:41:31.095Z,0.00
2023-11-17T05:42:31.045Z,0.00
2023-11-17T05:43:31.110Z,0.00
2023-11-17T05:44:31.027Z,0.00
2023-11-17T05:45:31.029Z,0.00
2023-11-17T05:46:31.076Z,0.00
2023-11-17T05:47:31.088Z,0.00
2023-11-17T05:48:30.986Z,0.00
2023-11-17T05:49:31.030Z,0.00
2023-11-17T05:50:31.119Z,0.00
2023-11-17T05:51:30.946Z,0.00
2023-11-17T05:52:30.981Z,0.00
2023-11-17T05:53:30.919Z,0.00
2023-11-17T05:54:30.905Z,0.00
2023-11-17T05:55:30.909Z,0.00
2023-11-17T05:56:30.881Z,0.00
2023-11-17T05:57:30.875Z,0.00
2023-11-17T05:58:30.858Z,0.00
2023-11-17T05:59:30.824Z,0.00
2023-11-17T06:00:30.821Z,0.00
2023-11-17T06:01:30.860Z,0.00
2023-11-17T06:02:30.857Z,0.00
2023-11-17T06:03:30.889Z,0.00
2023-11-17T06:04:30.828Z,0.00
2023-11-17T06:05:30.780Z,0.00
2023-11-17T06:06:30.745Z,0.00
2023-11-17T06:07:30.775Z,0.00
2023-11-17T06:08:30.705Z,0.00
2023-11-17T06:09:30.698Z,0.00
2023-11-17T06:10:30.730Z,0.00
2023-11-17T06:11:30.688Z,0.00
2023-11-17T06:12:30.663Z,0.00
2023-11-17T06:13:30.680Z,4.00
2023-11-17T06:14:30.651Z,4.00
2023-11-17T06:15:30.638Z,0.00
2023-11-17T06:16:30.651Z,4.00
2023-11-17T06:17:30.656Z,4.00
2023-11-17T06:18:30.589Z,0.00
2023-11-17T06:19:30.598Z,4.00
2023-11-17T06:20:30.573Z,4.00
2023-11-17T06:21:30.542Z,4.00
2023-11-17T06:22:30.550Z,8.00
2023-11-17T06:23:30.522Z,4.00
2023-11-17T06:24:30.533Z,4.00
2023-11-17T06:25:30.545Z,8.00
2023-11-17T06:26:30.499Z,8.00
2023-11-17T06:27:30.471Z,4.00
2023-11-17T06:28:30.524Z,8.00
2023-11-17T06:29:30.452Z,8.00
2023-11-17T06:30:30.440Z,16.00
2023-11-17T06:31:30.622Z,12.00
2023-11-17T06:32:30.476Z,16.00
2023-11-17T06:33:30.415Z,12.00
2023-11-17T06:34:30.421Z,16.00
2023-11-17T06:35:30.374Z,16.00
2023-11-17T06:36:30.353Z,16.00
2023-11-17T06:37:30.388Z,20.00
2023-11-17T06:38:30.397Z,16.00
2023-11-17T06:39:30.328Z,12.00
2023-11-17T06:40:30.380Z,12.00
2023-11-17T06:41:30.293Z,12.00
2023-11-17T06:42:30.340Z,8.00
2023-11-17T06:43:30.382Z,16.00
2023-11-17T06:44:30.248Z,16.00
2023-11-17T06:45:30.273Z,32.00
2023-11-17T06:46:30.310Z,32.00
2023-11-17T06:47:30.240Z,40.00
2023-11-17T06:48:30.202Z,44.00
2023-11-17T06:49:30.217Z,52.00
2023-11-17T06:50:30.186Z,60.00
2023-11-17T06:51:30.225Z,60.00
2023-11-17T06:52:30.182Z,60.00
2023-11-17T06:53:30.150Z,68.00
2023-11-17T06:54:30.136Z,76.00
2023-11-17T06:55:30.153Z,84.00
2023-11-17T06:56:30.107Z,96.00
2023-11-17T06:57:30.108Z,104.00
2023-11-17T06:58:30.139Z,104.00
2023-11-17T06:59:30.073Z,112.00
2023-11-17T07:00:30.047Z,124.00
2023-11-17T07:01:30.085Z,120.00
2023-11-17T07:02:30.293Z,124.00
2023-11-17T07:03:30.057Z,124.00
2023-11-17T07:04:30.015Z,128.00
2023-11-17T07:05:30.013Z,132.00
2023-11-17T07:06:29.960Z,128.00
2023-11-17T07:07:30.011Z,136.00
2023-11-17T07:08:29.951Z,136.00
2023-11-17T07:09:29.934Z,144.00
2023-11-17T07:10:29.964Z,140.00
2023-11-17T07:11:29.916Z,148.00
2023-11-17T07:12:29.928Z,160.00
2023-11-17T07:13:29.907Z,172.00
2023-11-17T07:14:29.871Z,184.00
2023-11-17T07:15:29.889Z,192.00
2023-11-17T07:16:41.072Z,204.00
2023-11-17T07:17:30.885Z,208.00
2023-11-17T07:18:29.864Z,220.00
2023-11-17T07:19:29.818Z,228.00
2023-11-17T07:20:29.808Z,232.00
2023-11-17T07:21:29.936Z,228.00
2023-11-17T07:22:29.775Z,228.00
2023-11-17T07:23:29.752Z,228.00
2023-11-17T07:24:29.755Z,240.00
2023-11-17T07:25:29.808Z,240.00
2023-11-17T07:26:29.723Z,236.00
2023-11-17T07:27:29.743Z,240.00
2023-11-17T07:28:29.714Z,248.00
2023-11-17T07:29:29.680Z,252.00
2023-11-17T07:30:29.708Z,256.00
2023-11-17T07:31:29.716Z,252.00
2023-11-17T07:32:29.663Z,252.00
2023-11-17T07:33:29.643Z,256.00
2023-11-17T07:34:29.652Z,260.00
2023-11-17T07:35:29.603Z,260.00
2023-11-17T07:36:29.583Z,264.00
2023-11-17T07:37:29.630Z,268.00
2023-11-17T07:38:29.611Z,276.00
2023-11-17T07:39:29.549Z,284.00
2023-11-17T07:40:31.186Z,288.00
2023-11-17T07:41:29.530Z,288.00
2023-11-17T07:42:29.514Z,292.00
2023-11-17T07:43:29.540Z,296.00
2023-11-17T07:44:29.499Z,296.00
2023-11-17T07:45:29.505Z,308.00
2023-11-17T07:46:29.541Z,316.00
2023-11-17T07:47:29.570Z,328.00
2023-11-17T07:48:29.432Z,340.00
2023-11-17T07:49:29.486Z,348.00
2023-11-17T07:50:29.430Z,356.00
2023-11-17T07:51:29.407Z,360.00
2023-11-17T07:52:29.460Z,364.00
2023-11-17T07:53:29.377Z,368.00
2023-11-17T07:54:29.368Z,372.00
2023-11-17T07:55:29.385Z,376.00
2023-11-17T07:56:29.323Z,376.00
2023-11-17T07:57:29.321Z,376.00
2023-11-17T07:58:29.340Z,380.00
2023-11-17T07:59:29.305Z,384.00
2023-11-17T08:00:29.658Z,388.00
2023-11-17T08:01:29.305Z,388.00
2023-11-17T08:02:29.266Z,392.00
2023-11-17T08:03:29.359Z,400.00
2023-11-17T08:04:29.339Z,404.00
2023-11-17T08:05:29.266Z,404.00
2023-11-17T08:06:29.201Z,408.00
2023-11-17T08:07:29.268Z,408.00
2023-11-17T08:08:29.216Z,412.00
2023-11-17T08:09:29.196Z,420.00
2023-11-17T08:10:29.169Z,420.00
2023-11-17T08:11:29.137Z,424.00
2023-11-17T08:12:29.140Z,424.00
2023-11-17T08:13:29.168Z,424.00
2023-11-17T08:14:29.099Z,432.00
2023-11-17T08:15:29.104Z,444.00
2023-11-17T08:16:29.226Z,452.00
2023-11-17T08:17:29.102Z,456.00
2023-11-17T08:18:29.044Z,464.00
2023-11-17T08:19:29.104Z,476.00
2023-11-17T08:20:29.020Z,496.00
2023-11-17T08:21:29.025Z,508.00
2023-11-17T08:22:29.073Z,520.00
2023-11-17T08:23:28.994Z,532.00
2023-11-17T08:24:28.981Z,528.00
2023-11-17T08:25:28.988Z,536.00
2023-11-17T08:26:28.933Z,540.00
2023-11-17T08:27:28.923Z,544.00
2023-11-17T08:28:28.940Z,548.00
2023-11-17T08:29:28.919Z,556.00
2023-11-17T08:30:35.786Z,552.00
2023-11-17T08:31:29.976Z,552.00
2023-11-17T08:32:28.925Z,568.00
2023-11-17T08:33:28.857Z,560.00
2023-11-17T08:34:28.910Z,596.00
2023-11-17T08:35:28.877Z,652.00
2023-11-17T08:36:28.813Z,660.00
2023-11-17T08:37:28.946Z,608.00
2023-11-17T08:38:28.814Z,588.00
2023-11-17T08:39:29.193Z,724.00
2023-11-17T08:40:28.786Z,788.00
2023-11-17T08:41:28.770Z,1068.00
2023-11-17T08:42:28.744Z,1300.00
2023-11-17T08:43:28.787Z,1476.00
2023-11-17T08:44:29.112Z,1444.00
2023-11-17T08:45:28.733Z,1092.00
2023-11-17T08:46:28.743Z,1000.00
2023-11-17T08:47:28.746Z,1020.00
2023-11-17T08:48:28.686Z,960.00
2023-11-17T08:49:28.749Z,612.00
2023-11-17T08:50:28.673Z,756.00
2023-11-17T08:51:28.635Z,656.00
2023-11-17T08:52:28.655Z,748.00
2023-11-17T08:53:28.608Z,696.00
2023-11-17T08:54:28.596Z,708.00
2023-11-17T08:55:28.691Z,748.00
2023-11-17T08:56:28.584Z,740.00
2023-11-17T08:57:28.551Z,800.00
2023-11-17T08:58:28.586Z,824.00
2023-11-17T08:59:28.532Z,780.00
2023-11-17T09:00:28.519Z,816.00
2023-11-17T09:01:28.585Z,820.00
2023-11-17T09:02:28.562Z,832.00
2023-11-17T09:03:28.541Z,868.00
2023-11-17T09:04:28.490Z,868.00
2023-11-17T09:05:28.450Z,928.00
2023-11-17T09:06:28.434Z,948.00
2023-11-17T09:07:30.758Z,940.00
2023-11-17T09:08:28.398Z,940.00
2023-11-17T09:09:30.898Z,912.00
2023-11-17T09:10:28.432Z,956.00
2023-11-17T09:11:28.375Z,1036.00
2023-11-17T09:12:28.362Z,1156.00
2023-11-17T09:13:28.355Z,1068.00
2023-11-17T09:14:32.265Z,1116.00
2023-11-17T09:15:28.353Z,1116.00
2023-11-17T09:16:36.944Z,1132.00
2023-11-17T09:17:29.378Z,1148.00
2023-11-17T09:18:28.298Z,1124.00
2023-11-17T09:19:28.282Z,1076.00
2023-11-17T09:20:28.267Z,1052.00
2023-11-17T09:21:28.269Z,1076.00
2023-11-17T09:22:28.255Z,1084.00
2023-11-17T09:23:28.216Z,1092.00
2023-11-17T09:24:28.226Z,1128.00
2023-11-17T09:25:28.608Z,1120.00
2023-11-17T09:26:28.204Z,988.00
2023-11-17T09:27:28.163Z,1008.00
2023-11-17T09:28:28.225Z,948.00
2023-11-17T09:29:28.141Z,892.00
2023-11-17T09:30:28.135Z,888.00
2023-11-17T09:31:28.118Z,896.00
2023-11-17T09:32:28.174Z,876.00
2023-11-17T09:33:28.327Z,884.00
2023-11-17T09:34:28.146Z,876.00
2023-11-17T09:35:28.421Z,912.00
2023-11-17T09:36:28.075Z,1008.00
2023-11-17T09:37:28.142Z,1032.00
2023-11-17T09:38:35.262Z,1044.00
2023-11-17T09:39:29.029Z,1044.00
2023-11-17T09:40:28.003Z,1052.00
2023-11-17T09:41:27.979Z,1128.00
2023-11-17T09:42:27.989Z,1212.00
2023-11-17T09:43:28.012Z,1296.00
2023-11-17T09:44:27.962Z,1388.00
2023-11-17T09:45:28.100Z,1612.00
2023-11-17T09:46:27.975Z,1740.00
2023-11-17T09:47:28.001Z,1776.00
2023-11-17T10:03:30.693Z,2020.00
2023-11-17T10:04:30.554Z,1756.00
2023-11-17T10:05:30.516Z,1964.00
2023-11-17T10:06:30.498Z,1976.00
2023-11-17T10:07:30.569Z,2008.00
2023-11-17T10:08:30.487Z,1960.00
2023-11-17T10:09:30.653Z,1940.00
2023-11-17T10:10:30.517Z,1976.00
2023-11-17T10:11:30.452Z,1904.00
2023-11-17T10:12:30.436Z,1696.00
2023-11-17T10:13:30.461Z,1584.00
2023-11-17T10:14:30.418Z,1356.00
2023-11-17T10:15:30.425Z,1508.00
2023-11-17T10:16:30.459Z,2764.00
2023-11-17T10:17:30.457Z,1452.00
2023-11-17T10:18:30.464Z,2136.00
2023-11-17T10:19:30.386Z,1732.00
2023-11-17T10:20:30.352Z,876.00
2023-11-17T10:21:30.345Z,800.00
2023-11-17T10:22:30.322Z,732.00
2023-11-17T10:23:30.314Z,704.00
2023-11-17T10:24:30.299Z,800.00
2023-11-17T10:25:30.356Z,756.00
2023-11-17T10:26:30.283Z,712.00
2023-11-17T10:27:30.265Z,860.00
2023-11-17T10:28:30.298Z,804.00
2023-11-17T10:29:30.237Z,1224.00
2023-11-17T10:30:30.246Z,852.00
2023-11-17T10:31:30.314Z,756.00
2023-11-17T10:32:42.682Z,1056.00
2023-11-17T10:33:31.410Z,1508.00
2023-11-17T10:34:30.261Z,6612.00
2023-11-17T10:35:30.148Z,5240.00
2023-11-17T10:36:30.150Z,1864.00
2023-11-17T10:37:30.173Z,1652.00
2023-11-17T10:38:30.119Z,1952.00
2023-11-17T10:39:30.095Z,1680.00
2023-11-17T10:40:30.133Z,1788.00
2023-11-17T10:41:30.077Z,9236.00
2023-11-17T10:42:30.059Z,1260.00
2023-11-17T10:43:30.093Z,1328.00
2023-11-17T10:44:30.024Z,1340.00
2023-11-17T10:45:30.031Z,1288.00
2023-11-17T10:46:30.110Z,1132.00
2023-11-17T10:47:30.113Z,1156.00
2023-11-17T10:48:29.974Z,1252.00
2023-11-17T10:49:30.471Z,1580.00
2023-11-17T10:50:29.954Z,1168.00
2023-11-17T10:51:29.953Z,2348.00
2023-11-17T10:52:29.995Z,6216.00
2023-11-17T10:53:29.970Z,6684.00
2023-11-17T10:54:29.911Z,2136.00
2023-11-17T10:55:29.968Z,2320.00
2023-11-17T10:56:29.880Z,1564.00
2023-11-17T10:57:29.875Z,1624.00
2023-11-17T10:58:29.876Z,1796.00
2023-11-17T10:59:30.227Z,1784.00
2023-11-17T11:00:29.830Z,5860.00
2023-11-17T11:01:29.856Z,2940.00
2023-11-17T11:02:30.007Z,2292.00
2023-11-17T11:03:29.895Z,1352.00
2023-11-17T11:04:29.808Z,1308.00
2023-11-17T11:05:29.753Z,1468.00
2023-11-17T11:06:29.764Z,1348.00
2023-11-17T11:07:29.780Z,1540.00
2023-11-17T11:08:29.716Z,1292.00
2023-11-17T11:09:29.775Z,1664.00
2023-11-17T11:10:29.715Z,18144.00
2023-11-17T11:11:29.685Z,16672.00
2023-11-17T11:12:29.672Z,7500.00
2023-11-17T11:13:30.176Z,15968.00
2023-11-17T11:14:29.659Z,12296.00
2023-11-17T11:15:29.629Z,2100.00
2023-11-17T11:16:29.702Z,1564.00
2023-11-17T11:17:29.691Z,1884.00
2023-11-17T11:18:29.591Z,1512.00
2023-11-17T11:19:38.649Z,1140.00
2023-11-17T11:20:30.582Z,1596.00
2023-11-17T11:21:29.564Z,1684.00
2023-11-17T11:22:29.640Z,2772.00
2023-11-17T11:23:29.539Z,1696.00
2023-11-17T11:24:33.716Z,1264.00
2023-11-17T11:25:30.528Z,1120.00
2023-11-17T11:26:29.499Z,1012.00
2023-11-17T11:27:29.492Z,1108.00
2023-11-17T11:28:29.483Z,1060.00
2023-11-17T11:29:29.461Z,1120.00
2023-11-17T11:30:29.477Z,1236.00
2023-11-17T11:31:29.521Z,1644.00
2023-11-17T11:32:29.425Z,2556.00
2023-11-17T11:33:29.388Z,1432.00
2023-11-17T11:34:29.413Z,4844.00
2023-11-17T11:35:29.378Z,4588.00
2023-11-17T11:36:29.369Z,4476.00
2023-11-17T11:37:29.398Z,3080.00
2023-11-17T11:38:29.329Z,4636.00
2023-11-17T11:39:29.324Z,4428.00
2023-11-17T11:40:29.357Z,4420.00
2023-11-17T11:41:29.303Z,4916.00
2023-11-17T11:42:29.269Z,4888.00
2023-11-17T11:43:29.462Z,4544.00
2023-11-17T11:44:29.263Z,4728.00
2023-11-17T11:45:29.258Z,5044.00
2023-11-17T11:46:29.336Z,4660.00
2023-11-17T11:47:29.307Z,4340.00
2023-11-17T11:48:29.212Z,4596.00
2023-11-17T11:49:29.290Z,4320.00
2023-11-17T11:50:29.171Z,4456.00
2023-11-17T11:51:29.166Z,4464.00
2023-11-17T11:52:29.174Z,4820.00
2023-11-17T11:53:29.148Z,4676.00
2023-11-17T11:54:29.136Z,4512.00
2023-11-17T11:55:29.123Z,4428.00
2023-11-17T11:56:29.092Z,4248.00
2023-11-17T11:57:29.951Z,3904.00
2023-11-17T11:58:29.232Z,3684.00
2023-11-17T11:59:29.068Z,4212.00
2023-11-17T12:00:29.038Z,4676.00
2023-11-17T12:01:29.053Z,4664.00
2023-11-17T12:02:29.051Z,4720.00
2023-11-17T12:03:29.087Z,4744.00
2023-11-17T12:04:29.039Z,4832.00
2023-11-17T12:05:29.037Z,4884.00
2023-11-17T12:06:28.978Z,5484.00
2023-11-17T12:07:28.996Z,5688.00
2023-11-17T12:08:29.106Z,5688.00
2023-11-17T12:09:28.932Z,5296.00
2023-11-17T12:10:28.963Z,5384.00
2023-11-17T12:11:28.906Z,5728.00
2023-11-17T12:12:28.904Z,5620.00
2023-11-17T12:13:28.935Z,5880.00
2023-11-17T12:14:28.877Z,5584.00
2023-11-17T12:15:28.859Z,6144.00
2023-11-17T12:16:28.922Z,5520.00
2023-11-17T12:17:28.877Z,5308.00
2023-11-17T12:18:28.809Z,5244.00
2023-11-17T12:19:28.842Z,5164.00
2023-11-17T12:20:28.810Z,5300.00
2023-11-17T12:21:28.774Z,4888.00
2023-11-17T12:22:28.776Z,5056.00
2023-11-17T12:23:29.457Z,5092.00
2023-11-17T12:24:28.772Z,4524.00
2023-11-17T12:25:28.786Z,4168.00
2023-11-17T12:26:28.742Z,3536.00
2023-11-17T12:27:28.709Z,2564.00
2023-11-17T12:28:28.751Z,3376.00
2023-11-17T12:29:28.690Z,1696.00
2023-11-17T12:30:28.807Z,3108.00
2023-11-17T12:31:28.706Z,2856.00
2023-11-17T12:32:28.769Z,3080.00
2023-11-17T12:33:28.715Z,2936.00
2023-11-17T12:34:28.648Z,2860.00
2023-11-17T12:35:28.980Z,3048.00
2023-11-17T12:36:28.588Z,3136.00
2023-11-17T12:37:28.580Z,3060.00
2023-11-17T12:38:28.550Z,856.00
2023-11-17T12:39:28.583Z,1900.00
2023-11-17T12:40:28.573Z,800.00
2023-11-17T12:41:29.982Z,976.00
2023-11-17T12:42:28.506Z,1248.00
2023-11-17T12:43:28.522Z,3644.00
2023-11-17T12:44:28.500Z,3676.00
2023-11-17T12:45:28.547Z,3880.00
2023-11-17T12:46:28.595Z,4088.00
2023-11-17T12:47:32.269Z,4052.00
2023-11-17T12:48:28.496Z,3696.00
2023-11-17T12:49:28.439Z,3612.00
2023-11-17T12:50:28.433Z,4012.00
2023-11-17T12:51:28.432Z,3940.00
2023-11-17T12:52:28.435Z,3884.00
2023-11-17T12:53:35.849Z,3876.00
2023-11-17T12:54:29.359Z,3880.00
2023-11-17T12:55:28.374Z,3460.00
2023-11-17T12:56:28.332Z,3352.00
2023-11-17T12:57:28.319Z,3020.00
2023-11-17T12:58:28.326Z,2632.00
2023-11-17T12:59:28.608Z,2564.00
2023-11-17T13:00:28.258Z,2304.00
2023-11-17T13:01:28.359Z,2272.00
2023-11-17T13:02:28.321Z,2504.00
2023-11-17T13:03:28.302Z,2456.00
2023-11-17T13:04:28.291Z,2212.00
2023-11-17T13:05:28.561Z,2016.00
2023-11-17T13:06:28.297Z,1736.00
2023-11-17T13:07:28.240Z,1672.00
2023-11-17T13:08:28.159Z,1760.00
2023-11-17T13:09:28.185Z,1940.00
2023-11-17T13:10:28.178Z,1900.00
2023-11-17T13:11:28.684Z,1856.00
2023-11-17T13:12:28.140Z,1752.00
2023-11-17T13:13:28.173Z,1772.00
2023-11-17T13:14:28.094Z,1616.00